Time;durP1;ratioP1;P1;durP2;ratioP2;P2;SDS_P1;SDS_P2;PMS_P1;PMS_P2;Temp;Humidity;BMP_temperature;BMP_pressure;BME280_temperature;BME280_humidity;BME280_pressure;Samples;Min_cycle;Max_cycle;Signal;HPM_P1;HPM_P2
2023/11/09 00:01:44;;;;;;;10.90;4.07;;;;;;;8.68;80.70;98743.00;5048660;28;20041;-38
2023/11/09 00:04:10;;;;;;;7.88;3.80;;;;;;;8.68;80.90;98750.78;5033221;28;20037;-37
2023/11/09 00:06:36;;;;;;;6.65;3.63;;;;;;;8.68;80.29;98739.56;5032702;28;20091;-38
2023/11/09 00:09:03;;;;;;;10.93;3.47;;;;;;;8.70;80.89;98738.56;5028826;28;20068;-38
2023/11/09 00:11:30;;;;;;;6.43;3.53;;;;;;;8.80;80.47;98741.63;5049833;28;20088;-38
2023/11/09 00:13:56;;;;;;;8.65;3.45;;;;;;;8.75;80.69;98736.63;5047658;28;20053;-38
2023/11/09 00:16:23;;;;;;;9.70;3.25;;;;;;;8.79;80.63;98729.59;5029909;28;20037;-39
2023/11/09 00:18:49;;;;;;;4.90;3.03;;;;;;;8.75;80.28;98731.44;5028249;28;20048;-38
2023/11/09 00:21:15;;;;;;;7.60;3.65;;;;;;;8.65;80.01;98729.31;5032168;28;20076;-38
2023/11/09 00:23:41;;;;;;;9.43;3.53;;;;;;;8.68;79.86;98736.97;5034706;28;20126;-37
2023/11/09 00:26:07;;;;;;;6.97;3.50;;;;;;;8.73;80.19;98735.88;5034085;28;20065;-38
2023/11/09 00:28:34;;;;;;;7.88;3.50;;;;;;;8.78;80.09;98733.09;5032134;28;20052;-38
2023/11/09 00:31:00;;;;;;;10.85;3.60;;;;;;;8.64;80.08;98704.31;5021430;28;20193;-38
2023/11/09 00:33:27;;;;;;;8.30;4.15;;;;;;;8.78;80.12;98738.28;5031014;28;20041;-37
2023/11/09 00:35:54;;;;;;;6.50;3.45;;;;;;;8.86;79.51;98736.19;5038199;28;20091;-39
2023/11/09 00:38:20;;;;;;;9.65;3.13;;;;;;;8.88;79.42;98734.38;5031404;28;20045;-39
2023/11/09 00:40:46;;;;;;;6.00;3.30;;;;;;;8.62;79.66;98706.97;5047574;28;20048;-39
2023/11/09 00:43:12;;;;;;;6.20;3.33;;;;;;;8.79;79.56;98740.78;5029763;28;20041;-39
2023/11/09 00:45:38;;;;;;;7.38;3.38;;;;;;;8.73;79.62;98729.84;5043914;28;20049;-41
2023/11/09 00:48:05;;;;;;;8.68;3.35;;;;;;;8.80;79.80;98736.44;5026005;28;20065;-39
2023/11/09 00:50:31;;;;;;;6.57;3.92;;;;;;;8.71;79.68;98713.50;5047354;28;20065;-39
2023/11/09 00:52:57;;;;;;;8.63;3.97;;;;;;;8.88;79.37;98729.19;5032530;28;20045;-39
2023/11/09 00:55:24;;;;;;;9.02;3.30;;;;;;;8.90;79.49;98727.38;5035599;28;20052;-37
2023/11/09 00:57:50;;;;;;;9.10;3.70;;;;;;;8.89;79.62;98730.88;5036111;28;20049;-39
2023/11/09 01:00:17;;;;;;;8.43;3.20;;;;;;;8.92;78.95;98726.41;5034825;28;20037;-38
2023/11/09 01:02:48;;;;;;;7.07;3.38;;;;;;;8.96;78.94;98726.25;5031211;28;20047;-38
2023/11/09 01:05:14;;;;;;;8.25;3.75;;;;;;;8.98;79.08;98732.22;5037201;28;20480;-39
2023/11/09 01:07:41;;;;;;;7.90;3.65;;;;;;;8.99;78.92;98727.00;5030083;28;20045;-37
2023/11/09 01:10:07;;;;;;;12.77;3.58;;;;;;;8.95;78.94;98732.38;5027905;28;20052;-39
2023/11/09 01:12:33;;;;;;;6.38;3.58;;;;;;;8.91;79.31;98727.31;5047710;28;20060;-39
2023/11/09 01:15:01;;;;;;;5.18;3.20;;;;;;;8.95;78.73;98733.19;5031487;28;20046;-38
2023/11/09 01:17:31;;;;;;;7.32;3.08;;;;;;;8.83;78.79;98731.16;5034051;28;20123;-37
2023/11/09 01:19:57;;;;;;;5.97;3.33;;;;;;;8.37;79.24;98664.88;5031535;28;20151;-38
2023/11/09 01:22:23;;;;;;;7.25;3.80;;;;;;;8.69;79.54;98721.34;5035901;28;21966;-38
2023/11/09 01:24:49;;;;;;;5.35;3.85;;;;;;;8.72;79.66;98722.97;5050639;28;20087;-38
2023/11/09 01:27:15;;;;;;;8.38;3.38;;;;;;;8.78;79.70;98722.72;5035879;28;20045;-38
2023/11/09 01:29:41;;;;;;;7.60;3.67;;;;;;;8.76;79.18;98717.59;5036587;28;20044;-38
2023/11/09 01:32:08;;;;;;;8.93;3.70;;;;;;;8.83;79.46;98719.03;5049969;28;20049;-42
2023/11/09 01:34:33;;;;;;;9.55;4.25;;;;;;;8.85;79.01;98713.75;5036500;28;20039;-38
2023/11/09 01:37:00;;;;;;;8.10;3.53;;;;;;;8.86;79.38;98713.69;5036384;28;20034;-38
2023/11/09 01:39:26;;;;;;;7.65;3.50;;;;;;;8.86;79.27;98708.53;5035958;28;20427;-38
2023/11/09 01:41:52;;;;;;;6.70;3.72;;;;;;;8.85;79.33;98704.25;5035871;28;20039;-38
2023/11/09 01:44:18;;;;;;;8.88;3.67;;;;;;;8.83;79.48;98707.81;5050022;28;20049;-37
2023/11/09 01:46:45;;;;;;;7.28;3.63;;;;;;;8.84;78.97;98704.31;5034923;28;20578;-38
2023/11/09 01:49:12;;;;;;;7.22;3.28;;;;;;;8.83;79.29;98706.06;5035575;28;20056;-37
2023/11/09 01:51:39;;;;;;;8.80;3.80;;;;;;;8.79;79.44;98703.69;5034315;28;20083;-38
2023/11/09 01:54:06;;;;;;;6.93;4.00;;;;;;;8.71;79.33;98705.75;5040250;28;20049;-37
2023/11/09 01:56:32;;;;;;;7.45;3.60;;;;;;;8.67;79.49;98694.69;5044461;28;20033;-38
2023/11/09 01:58:58;;;;;;;6.97;4.05;;;;;;;8.70;79.93;98699.72;5049979;28;20051;-39
2023/11/09 02:01:25;;;;;;;6.88;3.53;;;;;;;8.53;79.56;98667.66;5053712;28;20045;-38
2023/11/09 02:03:51;;;;;;;6.47;3.67;;;;;;;8.71;79.81;98691.03;5036271;28;20047;-38
2023/11/09 02:06:18;;;;;;;5.28;3.30;;;;;;;8.74;79.66;98700.44;5049953;28;20081;-37
2023/11/09 02:08:47;;;;;;;13.57;4.03;;;;;;;8.50;79.87;98673.81;5037465;28;20091;-38
2023/11/09 02:11:14;;;;;;;11.40;3.70;;;;;;;8.60;80.02;98689.81;5054963;28;20086;-37
2023/11/09 02:13:42;;;;;;;6.82;3.35;;;;;;;8.60;79.99;98690.66;5046836;28;20049;-38
2023/11/09 02:16:08;;;;;;;5.07;3.63;;;;;;;8.61;80.04;98692.34;5035571;28;20046;-38
2023/11/09 02:18:34;;;;;;;7.88;4.00;;;;;;;8.59;80.45;98686.38;5032572;28;20461;-39
2023/11/09 02:21:00;;;;;;;7.75;3.58;;;;;;;8.64;80.16;98693.94;5034342;28;20037;-39
2023/11/09 02:23:33;;;;;;;10.93;3.65;;;;;;;8.65;80.42;98696.47;5029928;28;20049;-46
2023/11/09 02:26:00;;;;;;;10.43;4.10;;;;;;;8.50;80.24;98666.88;5037972;28;20076;-38
2023/11/09 02:28:27;;;;;;;8.70;3.75;;;;;;;8.69;80.36;98698.03;5033408;28;20065;-38
2023/11/09 02:30:53;;;;;;;7.95;4.15;;;;;;;8.75;80.33;98695.19;5032584;28;20033;-38
2023/11/09 02:33:19;;;;;;;10.95;3.78;;;;;;;8.69;79.87;98692.03;5047826;28;20128;-39
2023/11/09 02:35:46;;;;;;;8.10;4.00;;;;;;;8.65;80.29;98690.44;5031275;28;20132;-38
2023/11/09 02:38:12;;;;;;;9.02;3.67;;;;;;;8.60;80.28;98675.09;5026545;28;20209;-37
2023/11/09 02:40:38;;;;;;;10.20;4.07;;;;;;;8.71;80.14;98690.19;5047428;28;20510;-38
2023/11/09 02:43:03;;;;;;;8.23;4.30;;;;;;;8.71;80.01;98690.19;5018511;28;20104;-38
2023/11/09 02:45:30;;;;;;;10.60;4.05;;;;;;;8.73;79.98;98686.66;5040598;28;20842;-38
2023/11/09 02:47:56;;;;;;;5.80;3.28;;;;;;;8.74;80.32;98684.91;5033745;28;20038;-39
2023/11/09 02:50:22;;;;;;;10.60;3.85;;;;;;;8.76;80.38;98689.09;5033108;28;20067;-38
2023/11/09 02:52:48;;;;;;;5.65;3.25;;;;;;;8.79;80.24;98690.72;5049598;28;20037;-38
2023/11/09 02:55:18;;;;;;;8.93;3.83;;;;;;;8.76;80.07;98689.09;5031882;28;20033;-38
2023/11/09 02:57:45;;;;;;;9.73;3.92;;;;;;;8.76;79.93;98686.50;5033373;28;20036;-38
2023/11/09 03:00:11;;;;;;;6.93;3.70;;;;;;;8.75;80.22;98686.56;5049248;28;20048;-39
2023/11/09 03:02:37;;;;;;;10.05;4.38;;;;;;;8.75;80.05;98684.81;5032861;28;20048;-38
2023/11/09 03:05:03;;;;;;;10.32;3.70;;;;;;;8.77;79.90;98689.94;5031861;28;20067;-38
2023/11/09 03:07:31;;;;;;;8.88;4.60;;;;;;;8.76;80.00;98681.31;5041913;28;20131;-38
2023/11/09 03:09:57;;;;;;;7.35;3.97;;;;;;;8.77;80.04;98685.59;5048401;28;20055;-38
2023/11/09 03:12:23;;;;;;;8.98;4.00;;;;;;;8.81;80.19;98683.69;5043612;28;20419;-39
2023/11/09 03:14:50;;;;;;;7.32;4.13;;;;;;;8.80;79.92;98689.78;5033736;28;20048;-38
2023/11/09 03:17:17;;;;;;;9.02;4.00;;;;;;;8.80;80.10;98684.59;5035168;28;20182;-39
2023/11/09 03:19:43;;;;;;;10.70;4.63;;;;;;;8.80;80.15;98682.88;5039435;28;20045;-39
2023/11/09 03:22:11;;;;;;;8.82;4.45;;;;;;;8.82;80.09;98696.59;5042133;28;20066;-38
2023/11/09 03:24:41;;;;;;;5.87;4.03;;;;;;;8.81;80.22;98681.97;5047037;28;20053;-38
2023/11/09 03:27:09;;;;;;;7.07;3.63;;;;;;;8.79;79.84;98683.75;5031298;28;20065;-39
2023/11/09 03:29:37;;;;;;;9.95;5.28;;;;;;;8.79;80.04;98686.34;5032818;28;20588;-38
2023/11/09 03:32:06;;;;;;;9.43;3.83;;;;;;;8.75;79.83;98686.56;5034411;28;20244;-42
2023/11/09 03:34:33;;;;;;;8.43;4.05;;;;;;;8.78;80.06;98689.88;5029582;28;20099;-38
2023/11/09 03:37:00;;;;;;;16.27;4.35;;;;;;;8.75;80.30;98682.22;5029416;28;20036;-41
2023/11/09 03:39:26;;;;;;;10.85;4.93;;;;;;;8.77;80.02;98692.53;5033979;28;20052;-38
2023/11/09 03:41:52;;;;;;;11.23;4.03;;;;;;;8.77;80.04;98695.97;5030392;28;20037;-38
2023/11/09 03:44:19;;;;;;;7.05;4.40;;;;;;;8.78;80.19;98694.22;5046758;28;20048;-39
2023/11/09 03:46:49;;;;;;;11.55;3.83;;;;;;;8.73;80.24;98681.47;5030399;28;20053;-39
2023/11/09 03:49:15;;;;;;;11.48;4.80;;;;;;;8.77;80.56;98687.34;5036180;28;20174;-38
2023/11/09 03:51:42;;;;;;;11.95;5.38;;;;;;;8.60;80.40;98662.16;5031255;28;20038;-39
2023/11/09 03:54:08;;;;;;;12.43;4.80;;;;;;;8.75;80.25;98687.41;5047725;28;20480;-39
2023/11/09 03:56:35;;;;;;;8.07;4.50;;;;;;;8.74;80.31;98677.94;5032032;28;20037;-38
2023/11/09 03:59:01;;;;;;;13.50;4.75;;;;;;;8.75;80.67;98691.75;5032874;28;20132;-39
2023/11/09 04:01:27;;;;;;;10.10;4.28;;;;;;;8.74;80.51;98684.91;5033160;28;20033;-41
2023/11/09 04:03:53;;;;;;;10.60;4.55;;;;;;;8.74;80.54;98683.13;5048066;28;20052;-39
2023/11/09 04:06:19;;;;;;;10.43;4.78;;;;;;;8.74;81.03;98685.72;5032052;28;20136;-37
2023/11/09 04:08:46;;;;;;;9.45;4.63;;;;;;;8.73;81.07;98686.66;5032670;28;20053;-38
2023/11/09 04:11:13;;;;;;;8.38;4.45;;;;;;;8.60;80.92;98662.16;5023202;28;20045;-39
2023/11/09 04:13:39;;;;;;;8.05;4.40;;;;;;;8.71;81.04;98682.41;5048047;28;20123;-39
2023/11/09 04:16:08;;;;;;;11.45;4.85;;;;;;;8.75;80.81;98678.78;5031834;28;20037;-40
2023/11/09 04:18:34;;;;;;;12.23;5.38;;;;;;;8.60;80.80;98659.56;5029348;28;20209;-38
2023/11/09 04:21:00;;;;;;;10.18;4.40;;;;;;;8.77;81.12;98684.75;5032550;28;20037;-39
2023/11/09 04:23:26;;;;;;;16.70;4.90;;;;;;;8.79;81.11;98682.94;5025793;28;20520;-38
2023/11/09 04:25:52;;;;;;;10.93;5.22;;;;;;;8.82;81.24;98680.22;5036925;28;20076;-38
2023/11/09 04:28:18;;;;;;;10.75;4.50;;;;;;;8.86;81.37;98679.16;5035731;28;20424;-38
2023/11/09 04:30:45;;;;;;;10.27;5.38;;;;;;;8.90;81.11;98678.97;5036109;28;20069;-38
2023/11/09 04:33:12;;;;;;;11.18;4.78;;;;;;;8.78;80.76;98657.94;5047175;28;20441;-39
2023/11/09 04:35:39;;;;;;;13.70;5.32;;;;;;;8.79;80.70;98660.44;5029317;28;20042;-39
2023/11/09 04:38:05;;;;;;;10.82;4.65;;;;;;;9.00;80.52;98684.63;5036370;28;20048;-38
2023/11/09 04:40:32;;;;;;;9.10;5.13;;;;;;;9.04;80.64;98691.34;5029149;28;20072;-38
2023/11/09 04:42:58;;;;;;;11.85;4.70;;;;;;;9.09;80.13;98697.16;5029882;28;20077;-39
2023/11/09 04:45:25;;;;;;;14.82;5.05;;;;;;;8.93;80.19;98662.44;5032482;28;20041;-39
2023/11/09 04:47:55;;;;;;;10.73;4.68;;;;;;;9.12;80.25;98693.56;5031632;28;20513;-38
2023/11/09 04:50:28;;;;;;;10.45;4.28;;;;;;;8.90;79.84;98645.25;5031429;28;20044;-39
2023/11/09 04:53:07;;;;;;;7.28;3.83;;;;;;;9.15;79.89;98693.47;5045644;28;20036;-38
2023/11/09 04:55:43;;;;;;;8.73;4.07;;;;;;;9.01;79.74;98659.50;5040215;28;20513;-38
2023/11/09 05:09:10;;;;;;;8.35;4.43;;;;;;;9.17;79.29;98684.69;5035808;28;20072;-39
2023/11/09 05:11:36;;;;;;;20.27;4.78;;;;;;;9.17;79.63;98694.22;5037172;28;20059;-40
2023/11/09 05:14:01;;;;;;;11.50;5.35;;;;;;;9.14;79.41;98686.59;5035930;28;20520;-38
2023/11/09 05:16:27;;;;;;;10.32;4.55;;;;;;;8.95;79.44;98655.41;5025864;28;20044;-40
2023/11/09 05:18:54;;;;;;;10.95;5.20;;;;;;;9.12;79.25;98684.03;5036827;28;20053;-39
2023/11/09 05:21:20;;;;;;;14.23;5.72;;;;;;;9.12;79.32;98689.22;5050182;28;20045;-39
2023/11/09 05:23:46;;;;;;;16.35;5.78;;;;;;;9.16;79.68;98692.56;5035878;28;20045;-39
2023/11/09 05:26:12;;;;;;;16.30;6.30;;;;;;;9.16;80.04;98689.97;5035542;28;20048;-39
2023/11/09 05:28:39;;;;;;;15.88;6.50;;;;;;;9.13;79.75;98693.50;5050741;28;20045;-39
2023/11/09 05:31:08;;;;;;;9.32;4.75;;;;;;;8.97;79.85;98661.41;5035547;28;20903;-38
2023/11/09 05:33:37;;;;;;;11.75;5.28;;;;;;;9.16;80.02;98693.38;5032329;28;20453;-39
2023/11/09 05:36:07;;;;;;;15.05;4.78;;;;;;;9.17;79.65;98692.47;5033001;28;20063;-40
2023/11/09 05:38:35;;;;;;;15.07;6.28;;;;;;;9.20;79.50;98702.72;5036560;28;20060;-40
2023/11/09 05:41:01;;;;;;;10.50;4.75;;;;;;;9.22;79.44;98698.28;5031863;28;20039;-39
2023/11/09 05:43:29;;;;;;;11.95;5.30;;;;;;;9.25;79.13;98705.94;5035036;28;20041;-39
2023/11/09 05:45:57;;;;;;;12.75;5.22;;;;;;;9.30;79.19;98695.38;5053386;28;20041;-40
2023/11/09 05:48:24;;;;;;;13.90;5.10;;;;;;;9.31;79.16;98700.50;5050704;28;20069;-39
2023/11/09 05:50:51;;;;;;;14.80;5.10;;;;;;;9.20;79.49;98673.34;5035613;28;20044;-38
2023/11/09 05:53:19;;;;;;;18.30;5.22;;;;;;;9.37;78.89;98699.34;5039513;28;20080;-38
2023/11/09 05:55:44;;;;;;;17.30;4.80;;;;;;;9.40;78.92;98703.56;5035323;28;20465;-38
2023/11/09 05:58:11;;;;;;;16.17;5.82;;;;;;;9.26;79.07;98665.28;5051626;28;20498;-39
2023/11/09 06:00:38;;;;;;;10.63;4.82;;;;;;;9.45;78.83;98693.81;5052629;28;20114;-39
2023/11/09 06:03:04;;;;;;;15.32;5.30;;;;;;;9.49;78.35;98705.72;5055119;28;20041;-38
2023/11/09 06:05:30;;;;;;;10.32;4.97;;;;;;;9.51;78.28;98696.13;5056373;28;20116;-38
2023/11/09 06:07:58;;;;;;;17.35;5.97;;;;;;;9.42;78.66;98671.44;5052237;28;20527;-39
2023/11/09 06:10:29;;;;;;;11.57;4.83;;;;;;;9.57;77.93;98695.88;5057196;28;20047;-39
2023/11/09 06:12:56;;;;;;;12.90;4.32;;;;;;;9.57;77.74;98690.69;5053686;28;20131;-38
2023/11/09 06:15:21;;;;;;;9.93;4.40;;;;;;;9.68;77.66;98697.03;5036960;28;20047;-38
2023/11/09 06:17:48;;;;;;;16.58;5.00;;;;;;;9.71;77.70;98698.66;5040006;28;20072;-49
2023/11/09 06:20:15;;;;;;;24.20;4.57;;;;;;;9.62;77.25;98679.16;5028761;28;20065;-39
2023/11/09 06:22:41;;;;;;;12.10;4.63;;;;;;;9.76;77.04;98692.34;5042012;28;20045;-39
2023/11/09 06:25:09;;;;;;;17.27;5.53;;;;;;;9.77;77.25;98682.81;5024834;28;20041;-43
2023/11/09 06:27:36;;;;;;;18.08;5.60;;;;;;;9.88;77.09;98703.91;5042362;28;20048;-40
2023/11/09 06:30:04;;;;;;;14.82;5.18;;;;;;;9.91;76.56;98702.91;5068946;28;20132;-40
2023/11/09 06:32:32;;;;;;;17.08;5.68;;;;;;;9.92;76.50;98702.00;5047004;28;20586;-40
2023/11/09 06:34:59;;;;;;;12.32;5.05;;;;;;;9.92;76.08;98699.41;5058797;28;20513;-39
2023/11/09 06:37:26;;;;;;;12.55;5.55;;;;;;;10.00;76.51;98699.88;5057326;28;20613;-40
2023/11/09 06:39:53;;;;;;;15.13;5.13;;;;;;;10.06;75.99;98699.56;5057913;28;20040;-39
2023/11/09 06:42:18;;;;;;;14.77;5.50;;;;;;;10.10;75.72;98708.94;5056831;28;20535;-39
2023/11/09 06:44:45;;;;;;;18.00;5.30;;;;;;;10.12;75.48;98702.72;5054206;28;20076;-39
2023/11/09 06:47:11;;;;;;;18.60;5.78;;;;;;;10.16;75.89;98695.66;5070040;28;20043;-38
2023/11/09 06:49:37;;;;;;;21.50;5.57;;;;;;;10.21;75.34;98704.06;5051401;28;20561;-38
2023/11/09 06:52:04;;;;;;;14.20;5.32;;;;;;;10.22;75.22;98700.56;5053444;28;20036;-40
2023/11/09 06:54:32;;;;;;;20.40;5.97;;;;;;;10.24;75.19;98701.34;5051150;28;20032;-39
2023/11/09 06:56:59;;;;;;;19.20;6.05;;;;;;;10.32;74.94;98706.97;5042355;28;20565;-37
2023/11/09 06:59:24;;;;;;;17.80;5.97;;;;;;;10.34;74.81;98712.97;5052928;28;20065;-39
2023/11/09 07:01:51;;;;;;;21.70;6.45;;;;;;;10.36;74.77;98702.50;5052483;28;20114;-38
2023/11/09 07:04:19;;;;;;;17.73;5.93;;;;;;;10.39;74.13;98705.78;5055515;28;20032;-39
2023/11/09 07:06:45;;;;;;;15.25;5.32;;;;;;;10.41;74.29;98695.31;5053489;28;20567;-38
2023/11/09 07:09:11;;;;;;;24.80;6.65;;;;;;;10.46;74.06;98696.78;5050381;28;20491;-39
2023/11/09 07:11:38;;;;;;;17.05;5.95;;;;;;;10.39;73.95;98685.00;5044088;28;20127;-40
2023/11/09 07:14:04;;;;;;;16.40;6.18;;;;;;;10.57;73.68;98702.25;5063224;28;20045;-40
2023/11/09 07:16:30;;;;;;;13.38;6.32;;;;;;;10.63;73.82;98704.53;5051286;28;20037;-38
2023/11/09 07:18:56;;;;;;;16.33;6.07;;;;;;;10.60;73.55;98685.69;5062018;28;20049;-41
2023/11/09 07:21:23;;;;;;;26.38;10.45;;;;;;;10.76;73.58;98702.19;5047608;28;20695;-40
2023/11/09 07:23:59;;;;;;;28.13;9.23;;;;;;;10.80;73.38;98701.09;5032837;28;20439;-41
2023/11/09 07:26:30;;;;;;;20.63;6.75;;;;;;;10.81;73.24;98700.19;5050587;28;20409;-40
2023/11/09 07:28:56;;;;;;;25.27;7.93;;;;;;;10.81;73.10;98701.94;5054359;28;20044;-39
2023/11/09 07:31:22;;;;;;;16.95;6.55;;;;;;;10.66;73.23;98674.97;5049788;28;20480;-40
2023/11/09 07:33:49;;;;;;;20.42;7.25;;;;;;;10.83;72.45;98692.31;5036639;28;20057;-39
2023/11/09 07:36:17;;;;;;;21.25;7.80;;;;;;;10.85;72.65;98693.91;5041567;28;20059;-39
2023/11/09 07:38:43;;;;;;;16.15;7.22;;;;;;;10.70;72.53;98670.44;5051283;28;20043;-39
2023/11/09 07:41:09;;;;;;;19.02;7.05;;;;;;;10.70;72.31;98673.06;5045719;28;20139;-39
2023/11/09 07:43:35;;;;;;;23.42;6.95;;;;;;;10.86;71.88;98690.41;5048191;28;20044;-42
2023/11/09 07:46:02;;;;;;;22.70;8.00;;;;;;;10.89;72.01;98695.44;5049767;28;20044;-39
2023/11/09 07:48:28;;;;;;;22.60;6.75;;;;;;;10.92;72.24;98697.03;5050593;28;20040;-39
2023/11/09 07:50:54;;;;;;;19.25;7.47;;;;;;;10.86;72.15;98684.34;5048927;28;20044;-39
2023/11/09 07:53:21;;;;;;;24.20;7.65;;;;;;;10.89;72.32;98686.78;5051723;28;20044;-39
2023/11/09 07:55:50;;;;;;;16.67;7.68;;;;;;;10.88;71.99;98695.53;5032492;28;20036;-39
2023/11/09 07:58:17;;;;;;;19.13;6.65;;;;;;;10.73;72.01;98660.72;5049651;28;20032;-39
2023/11/09 08:00:44;;;;;;;21.90;7.35;;;;;;;11.01;71.67;98693.97;5048125;28;20051;-39
2023/11/09 08:03:11;;;;;;;15.60;6.90;;;;;;;11.10;71.43;98684.81;5034841;28;20071;-39
2023/11/09 08:05:41;;;;;;;23.10;7.32;;;;;;;11.21;71.16;98695.50;5040806;28;20103;-39
2023/11/09 08:08:10;;;;;;;14.77;5.88;;;;;;;11.32;70.95;98690.59;5042795;28;20033;-38
2023/11/09 08:10:41;;;;;;;17.98;7.30;;;;;;;11.41;70.63;98703.09;5045763;28;20041;-38
2023/11/09 08:13:08;;;;;;;17.92;7.13;;;;;;;11.47;70.35;98698.41;5033036;28;20045;-37
2023/11/09 08:15:37;;;;;;;17.02;7.20;;;;;;;11.38;69.97;98683.28;5052959;28;20128;-41
2023/11/09 08:18:03;;;;;;;19.83;7.35;;;;;;;11.53;69.92;98702.44;5055504;28;20040;-39
2023/11/09 08:20:30;;;;;;;15.15;6.40;;;;;;;11.57;69.50;98698.75;5049611;28;20049;-40
2023/11/09 08:22:56;;;;;;;23.40;7.15;;;;;;;11.62;69.60;98706.34;5052033;28;20521;-39
2023/11/09 08:25:23;;;;;;;13.85;6.55;;;;;;;11.52;69.64;98682.53;5051344;28;20041;-37
2023/11/09 08:27:51;;;;;;;19.55;6.68;;;;;;;11.63;69.24;98706.25;5051239;28;20115;-38
2023/11/09 08:30:19;;;;;;;13.70;6.55;;;;;;;11.45;69.09;98676.00;5044705;28;20037;-47
2023/11/09 08:32:48;;;;;;;18.35;6.63;;;;;;;11.61;69.47;98702.06;5052870;28;20072;-38
2023/11/09 08:35:14;;;;;;;18.88;7.30;;;;;;;11.62;69.35;98706.34;5036642;28;20510;-38
2023/11/09 08:37:41;;;;;;;16.10;7.03;;;;;;;11.48;68.93;98678.44;5048854;28;20077;-55
2023/11/09 08:40:18;;;;;;;16.70;7.10;;;;;;;11.62;69.26;98701.13;5049430;28;20127;-37
2023/11/09 08:42:48;;;;;;;15.10;7.50;;;;;;;11.36;68.98;98663.47;5049021;28;20093;-39
2023/11/09 08:45:17;;;;;;;19.17;6.70;;;;;;;11.63;68.66;98700.19;5051624;28;20041;-39
2023/11/09 08:47:44;;;;;;;16.55;7.25;;;;;;;11.50;68.65;98676.59;5053436;28;20049;-45
2023/11/09 08:50:10;;;;;;;15.90;6.93;;;;;;;11.70;68.40;98698.94;5019089;28;20048;-40
2023/11/09 08:52:40;;;;;;;13.90;6.78;;;;;;;11.57;68.34;98677.09;5048349;28;20045;-40
2023/11/09 08:55:08;;;;;;;17.25;7.00;;;;;;;11.54;68.14;98667.69;5052044;28;20036;-40
2023/11/09 08:57:38;;;;;;;14.75;6.20;;;;;;;11.69;68.34;98698.09;5065504;28;20131;-40
2023/11/09 09:00:06;;;;;;;17.33;6.78;;;;;;;11.68;68.37;98703.38;5050504;28;20630;-40
2023/11/09 09:02:32;;;;;;;14.18;6.63;;;;;;;11.71;68.37;98703.22;5040310;28;20050;-41
2023/11/09 09:05:01;;;;;;;19.25;6.80;;;;;;;11.58;68.12;98681.38;5042185;28;20203;-40
2023/11/09 09:07:31;;;;;;;21.95;6.35;;;;;;;11.70;68.29;98704.16;5033590;28;20045;-41
2023/11/09 09:09:58;;;;;;;20.63;7.57;;;;;;;11.73;67.96;98698.78;5031624;28;20037;-40
2023/11/09 09:12:24;;;;;;;18.45;7.07;;;;;;;11.72;67.84;98700.53;5041521;28;20102;-40
2023/11/09 09:14:52;;;;;;;18.75;6.50;;;;;;;11.70;68.22;98705.00;5047998;28;20103;-42
2023/11/09 09:17:18;;;;;;;16.38;6.95;;;;;;;11.69;67.84;98713.72;5047059;28;20041;-40
2023/11/09 09:19:46;;;;;;;12.13;6.10;;;;;;;11.53;68.13;98686.84;5051963;28;20041;-41
2023/11/09 09:22:13;;;;;;;18.52;7.75;;;;;;;11.70;67.94;98709.34;5032051;28;20144;-40
2023/11/09 09:24:40;;;;;;;21.20;7.80;;;;;;;11.73;67.67;98712.66;5041236;28;20037;-41
2023/11/09 09:27:06;;;;;;;16.30;6.78;;;;;;;11.75;67.35;98712.56;5040174;28;20044;-41
2023/11/09 09:29:35;;;;;;;21.52;7.82;;;;;;;11.63;67.32;98690.63;5042658;28;20065;-41
2023/11/09 09:32:04;;;;;;;18.70;7.05;;;;;;;11.78;67.55;98701.97;5041279;28;20135;-40
2023/11/09 09:34:30;;;;;;;19.58;7.78;;;;;;;11.84;67.82;98710.31;5058682;28;20032;-40
2023/11/09 09:37:00;;;;;;;16.23;7.32;;;;;;;11.88;67.27;98705.75;5033287;28;20110;-40
2023/11/09 09:39:27;;;;;;;25.40;7.60;;;;;;;11.72;67.43;98697.09;5043481;28;20037;-41
2023/11/09 09:41:58;;;;;;;17.17;6.80;;;;;;;11.74;67.20;98688.31;5049169;28;20055;-40
2023/11/09 09:44:24;;;;;;;15.40;6.38;;;;;;;11.84;67.20;98699.88;5050362;28;20045;-40
2023/11/09 09:46:55;;;;;;;12.88;4.95;;;;;;;11.82;66.91;98704.38;5043729;28;20040;-40
2023/11/09 09:49:22;;;;;;;11.20;5.57;;;;;;;11.86;66.63;98705.03;5052612;28;20489;-40
2023/11/09 09:51:54;;;;;;;15.60;5.70;;;;;;;11.87;66.63;98706.72;5044243;28;20112;-40
2023/11/09 09:54:20;;;;;;;11.95;6.00;;;;;;;11.87;66.84;98704.94;5045962;28;20063;-39
2023/11/09 09:56:47;;;;;;;11.30;6.53;;;;;;;11.93;66.44;98698.56;5043512;28;20032;-40
2023/11/09 09:59:14;;;;;;;18.98;6.50;;;;;;;12.00;66.31;98705.09;5044781;28;20132;-41
2023/11/09 10:01:44;;;;;;;13.85;6.13;;;;;;;12.05;66.07;98700.47;5040510;28;20504;-39
2023/11/09 10:04:10;;;;;;;17.88;6.45;;;;;;;12.08;66.03;98704.69;5033950;28;20044;-40
2023/11/09 10:06:38;;;;;;;13.18;5.88;;;;;;;11.99;65.77;98698.19;5031720;28;20173;-46
2023/11/09 10:09:05;;;;;;;13.23;5.43;;;;;;;11.99;65.83;98713.81;5039699;28;20049;-41
2023/11/09 10:11:32;;;;;;;12.32;5.35;;;;;;;11.94;65.97;98713.25;5051651;28;20052;-40
2023/11/09 10:13:59;;;;;;;11.07;4.53;;;;;;;11.93;65.94;98714.19;5050798;28;20047;-40
2023/11/09 10:16:32;;;;;;;12.27;5.40;;;;;;;11.91;66.14;98715.19;5047154;28;20072;-40
2023/11/09 10:19:02;;;;;;;9.57;4.80;;;;;;;11.86;66.46;98708.47;5049434;28;20088;-38
2023/11/09 10:21:30;;;;;;;11.77;4.80;;;;;;;11.86;66.38;98712.84;5064311;28;20041;-40
2023/11/09 10:24:01;;;;;;;9.82;5.18;;;;;;;11.80;66.19;98703.59;5040703;28;20041;-41
2023/11/09 10:26:41;;;;;;;16.40;5.28;;;;;;;11.76;65.96;98703.84;5036365;28;20045;-40
2023/11/09 10:29:13;;;;;;;11.30;5.32;;;;;;;11.68;66.12;98682.56;5042698;28;20041;-39
2023/11/09 10:31:40;;;;;;;9.23;5.57;;;;;;;11.78;66.13;98691.56;5030578;28;20037;-40
2023/11/09 10:34:14;;;;;;;14.63;4.88;;;;;;;11.79;66.32;98699.31;5051652;28;20056;-41
2023/11/09 10:36:42;;;;;;;21.38;6.90;;;;;;;11.78;66.18;98692.41;5049680;28;20084;-39
2023/11/09 10:39:21;;;;;;;12.02;5.25;;;;;;;11.64;66.23;98674.06;5048332;28;20041;-40
2023/11/09 10:41:49;;;;;;;13.20;5.07;;;;;;;11.79;66.13;98696.69;5063357;28;20067;-40
2023/11/09 10:44:24;;;;;;;10.32;4.07;;;;;;;11.67;66.18;98675.69;5063712;28;20512;-40
2023/11/09 10:46:54;;;;;;;7.88;4.38;;;;;;;11.75;65.80;98700.41;5047325;28;20045;-40
2023/11/09 10:49:30;;;;;;;;;;;;;;;11.76;65.75;98707.28;5053214;28;20096;-39
2023/11/09 10:51:59;;;;;;;10.18;4.32;;;;;;;11.66;65.70;98713.91;5049934;28;19928;-40
2023/11/09 10:54:27;;;;;;;11.70;4.28;;;;;;;11.44;65.81;98695.16;5051660;28;20044;-41
2023/11/09 10:57:01;;;;;;;12.30;4.80;;;;;;;11.51;66.11;98717.34;5050654;28;20040;-41
2023/11/09 10:59:29;;;;;;;9.55;4.35;;;;;;;11.26;66.11;98696.09;5040165;28;20049;-44
2023/11/09 11:02:04;;;;;;;10.38;4.00;;;;;;;11.30;66.38;98721.91;5035313;28;20105;-41
2023/11/09 11:04:34;;;;;;;13.35;5.20;;;;;;;11.27;66.45;98723.81;5025436;28;20187;-41
2023/11/09 11:07:02;;;;;;;12.45;5.30;;;;;;;11.23;66.88;98728.34;5052033;28;20045;-39
2023/11/09 11:09:37;;;;;;;9.63;4.75;;;;;;;11.24;66.93;98732.63;5038535;28;20064;-41
2023/11/09 11:12:07;;;;;;;11.13;5.07;;;;;;;11.20;67.11;98722.47;5035273;28;20544;-41
2023/11/09 11:14:35;;;;;;;15.27;4.82;;;;;;;11.16;67.07;98724.38;5050380;28;20509;-40
2023/11/09 11:17:14;;;;;;;8.93;5.40;;;;;;;11.17;67.03;98728.66;5046976;28;20509;-48
2023/11/09 11:19:50;;;;;;;14.25;5.57;;;;;;;11.14;67.19;98731.44;5042057;28;20084;-41
2023/11/09 11:22:35;;;;;;;10.23;4.70;;;;;;;11.16;67.51;98731.34;5031945;28;20073;-40
2023/11/09 11:25:14;;;;;;;10.93;5.00;;;;;;;11.16;67.98;98729.56;5036571;28;20076;-40
2023/11/09 11:27:46;;;;;;;14.32;5.13;;;;;;;11.11;67.92;98722.94;5030367;28;21268;-40
2023/11/09 11:30:32;;;;;;;14.02;5.03;;;;;;;11.07;68.36;98727.47;5026087;28;20044;-40
2023/11/09 11:33:00;;;;;;;13.35;4.82;;;;;;;11.02;68.56;98721.66;5031454;28;20167;-40
2023/11/09 11:35:33;;;;;;;15.27;5.63;;;;;;;11.05;68.29;98722.31;5036066;28;20120;-39
2023/11/09 11:38:04;;;;;;;17.58;5.85;;;;;;;11.09;68.23;98738.63;5029303;28;20033;-40
2023/11/09 11:40:34;;;;;;;11.70;4.85;;;;;;;11.10;68.17;98737.69;5034240;28;20072;-40
2023/11/09 11:43:05;;;;;;;;;;;;;;;11.08;67.99;98731.75;5033486;28;20045;-41
2023/11/09 11:45:31;;;;;;;11.48;4.03;;;;;;;11.04;68.18;98731.03;5033691;28;19921;-39
2023/11/09 11:47:59;;;;;;;12.73;4.30;;;;;;;10.87;68.31;98705.09;5032806;28;20128;-40